sensor_id;sensor_type;location;lat;lon;timestamp;pressure;altitude;pressure_sealevel;temperature;humidity
72961;BME280;61141;46.204;19.774;2022-08-19T00:00:22;99854.59;;;22.85;58.21
72961;BME280;61141;46.204;19.774;2022-08-19T00:03:25;99866.09;;;22.77;58.67
72961;BME280;61141;46.204;19.774;2022-08-19T00:06:28;99851.81;;;22.75;58.53
72961;BME280;61141;46.204;19.774;2022-08-19T00:09:31;99842.66;;;22.75;58.63
72961;BME280;61141;46.204;19.774;2022-08-19T00:12:34;99849.94;;;22.81;58.78
72961;BME280;61141;46.204;19.774;2022-08-19T00:15:45;99839.09;;;22.84;58.71
72961;BME280;61141;46.204;19.774;2022-08-19T00:18:48;99844.22;;;22.85;58.80
72961;BME280;61141;46.204;19.774;2022-08-19T00:21:52;99848.09;;;22.88;58.82
72961;BME280;61141;46.204;19.774;2022-08-19T00:24:54;99838.78;;;22.91;58.37
72961;BME280;61141;46.204;19.774;2022-08-19T00:27:59;99839.41;;;22.86;58.93
72961;BME280;61141;46.204;19.774;2022-08-19T00:31:04;99846.06;;;22.70;59.17
72961;BME280;61141;46.204;19.774;2022-08-19T00:34:09;99835.22;;;22.72;59.14
72961;BME280;61141;46.204;19.774;2022-08-19T00:37:12;99839.09;;;22.74;59.19
72961;BME280;61141;46.204;19.774;2022-08-19T00:40:17;99845.59;;;22.71;59.37
72961;BME280;61141;46.204;19.774;2022-08-19T00:43:23;99835.22;;;22.72;59.22
72961;BME280;61141;46.204;19.774;2022-08-19T00:46:27;99833.75;;;22.58;58.86
72961;BME280;61141;46.204;19.774;2022-08-19T00:49:41;99834.97;;;22.39;59.49
72961;BME280;61141;46.204;19.774;2022-08-19T00:52:47;99832.78;;;22.34;59.82
72961;BME280;61141;46.204;19.774;2022-08-19T00:55:53;99828.47;;;22.42;59.58
72961;BME280;61141;46.204;19.774;2022-08-19T00:59:00;99814.28;;;22.18;60.32
72961;BME280;61141;46.204;19.774;2022-08-19T01:02:04;99820.22;;;22.30;60.68
72961;BME280;61141;46.204;19.774;2022-08-19T01:05:14;99809.84;;;22.39;60.33
72961;BME280;61141;46.204;19.774;2022-08-19T01:08:19;99810.47;;;22.34;60.33
72961;BME280;61141;46.204;19.774;2022-08-19T01:11:23;99811.22;;;22.35;60.14
72961;BME280;61141;46.204;19.774;2022-08-19T01:14:25;99815.56;;;22.36;60.00
72961;BME280;61141;46.204;19.774;2022-08-19T01:17:28;99798.53;;;22.34;59.97
72961;BME280;61141;46.204;19.774;2022-08-19T01:20:31;99801.16;;;22.37;60.05
72961;BME280;61141;46.204;19.774;2022-08-19T01:23:35;99810.03;;;22.45;59.97
72961;BME280;61141;46.204;19.774;2022-08-19T01:26:48;99813.41;;;22.49;60.20
72961;BME280;61141;46.204;19.774;2022-08-19T01:29:51;99810.47;;;22.52;60.05
72961;BME280;61141;46.204;19.774;2022-08-19T01:32:54;99812.97;;;22.50;60.21
72961;BME280;61141;46.204;19.774;2022-08-19T01:36:26;99820.72;;;22.46;60.09
72961;BME280;61141;46.204;19.774;2022-08-19T01:39:29;99820.72;;;22.46;59.77
72961;BME280;61141;46.204;19.774;2022-08-19T01:42:32;99815.72;;;22.32;59.84
72961;BME280;61141;46.204;19.774;2022-08-19T01:45:36;99821.59;;;22.25;60.11
72961;BME280;61141;46.204;19.774;2022-08-19T01:48:43;99802.31;;;22.00;60.43
72961;BME280;61141;46.204;19.774;2022-08-19T01:51:47;99817.56;;;22.17;60.36
72961;BME280;61141;46.204;19.774;2022-08-19T01:54:50;99821.88;;;22.09;60.92
72961;BME280;61141;46.204;19.774;2022-08-19T01:57:55;99808.84;;;22.15;60.84
72961;BME280;61141;46.204;19.774;2022-08-19T02:00:59;99794.31;;;22.20;60.41
72961;BME280;61141;46.204;19.774;2022-08-19T02:04:02;99805.47;;;22.29;60.53
72961;BME280;61141;46.204;19.774;2022-08-19T02:07:06;99806.56;;;22.32;60.53
72961;BME280;61141;46.204;19.774;2022-08-19T02:10:17;99803.59;;;22.17;60.69
72961;BME280;61141;46.204;19.774;2022-08-19T02:13:20;99793.97;;;22.09;61.01
72961;BME280;61141;46.204;19.774;2022-08-19T02:16:28;99793.63;;;22.07;61.38
72961;BME280;61141;46.204;19.774;2022-08-19T02:19:31;99784.06;;;22.17;61.16
72961;BME280;61141;46.204;19.774;2022-08-19T02:22:35;99768.38;;;22.10;61.02
72961;BME280;61141;46.204;19.774;2022-08-19T02:25:38;99778.78;;;22.10;61.16
72961;BME280;61141;46.204;19.774;2022-08-19T02:28:41;99769.88;;;21.93;61.75
72961;BME280;61141;46.204;19.774;2022-08-19T02:31:45;99766.00;;;21.91;61.66
72961;BME280;61141;46.204;19.774;2022-08-19T02:34:48;99764.47;;;21.90;61.68
72961;BME280;61141;46.204;19.774;2022-08-19T02:37:51;99776.41;;;21.99;61.60
72961;BME280;61141;46.204;19.774;2022-08-19T02:41:23;99774.72;;;22.02;61.86
72961;BME280;61141;46.204;19.774;2022-08-19T02:44:28;99775.81;;;22.04;62.05
72961;BME280;61141;46.204;19.774;2022-08-19T02:47:34;99771.94;;;22.02;61.55
72961;BME280;61141;46.204;19.774;2022-08-19T02:50:40;99785.88;;;22.02;62.22
72961;BME280;61141;46.204;19.774;2022-08-19T02:53:55;99763.00;;;21.85;62.25
72961;BME280;61141;46.204;19.774;2022-08-19T02:56:58;99769.28;;;21.89;62.44
72961;BME280;61141;46.204;19.774;2022-08-19T03:00:05;99778.13;;;21.97;62.19
72961;BME280;61141;46.204;19.774;2022-08-19T03:03:08;99791.50;;;22.11;61.68
72961;BME280;61141;46.204;19.774;2022-08-19T03:06:14;99794.72;;;22.09;62.06
72961;BME280;61141;46.204;19.774;2022-08-19T03:09:19;99804.63;;;22.01;62.43
72961;BME280;61141;46.204;19.774;2022-08-19T03:12:22;99801.97;;;21.89;62.82
72961;BME280;61141;46.204;19.774;2022-08-19T03:15:25;99798.66;;;21.81;62.78
72961;BME280;61141;46.204;19.774;2022-08-19T03:18:28;99799.66;;;21.65;62.97
72961;BME280;61141;46.204;19.774;2022-08-19T03:21:33;99785.94;;;21.49;63.52
72961;BME280;61141;46.204;19.774;2022-08-19T03:24:37;99798.47;;;21.45;63.61
72961;BME280;61141;46.204;19.774;2022-08-19T03:27:40;99797.59;;;21.57;63.35
72961;BME280;61141;46.204;19.774;2022-08-19T03:30:58;99796.69;;;21.60;63.37
72961;BME280;61141;46.204;19.774;2022-08-19T03:34:03;99797.28;;;21.55;63.32
72961;BME280;61141;46.204;19.774;2022-08-19T03:37:16;99802.41;;;21.56;63.43
72961;BME280;61141;46.204;19.774;2022-08-19T03:40:19;99808.00;;;21.65;63.49
72961;BME280;61141;46.204;19.774;2022-08-19T03:43:22;99814.50;;;21.62;63.55
72961;BME280;61141;46.204;19.774;2022-08-19T03:46:30;99812.13;;;21.52;63.96
72961;BME280;61141;46.204;19.774;2022-08-19T03:49:34;99817.63;;;21.64;63.66
72961;BME280;61141;46.204;19.774;2022-08-19T03:52:38;99801.41;;;21.41;64.04
72961;BME280;61141;46.204;19.774;2022-08-19T03:55:47;99813.28;;;21.63;63.36
72961;BME280;61141;46.204;19.774;2022-08-19T03:58:49;99813.78;;;21.71;63.22
72961;BME280;61141;46.204;19.774;2022-08-19T04:01:55;99813.94;;;21.67;63.65
72961;BME280;61141;46.204;19.774;2022-08-19T04:04:58;99812.19;;;21.61;63.74
72961;BME280;61141;46.204;19.774;2022-08-19T04:08:01;99824.75;;;21.65;63.80
72961;BME280;61141;46.204;19.774;2022-08-19T04:11:16;99808.63;;;21.60;63.63
72961;BME280;61141;46.204;19.774;2022-08-19T04:14:22;99836.41;;;21.73;63.61
72961;BME280;61141;46.204;19.774;2022-08-19T04:17:26;99829.94;;;21.54;63.87
72961;BME280;61141;46.204;19.774;2022-08-19T04:20:29;99828.72;;;21.55;63.72
72961;BME280;61141;46.204;19.774;2022-08-19T04:23:34;99832.47;;;21.61;63.67
72961;BME280;61141;46.204;19.774;2022-08-19T04:26:46;99832.19;;;21.68;63.56
72961;BME280;61141;46.204;19.774;2022-08-19T04:29:50;99829.16;;;21.85;63.06
72961;BME280;61141;46.204;19.774;2022-08-19T04:32:53;99817.56;;;21.86;62.86
72961;BME280;61141;46.204;19.774;2022-08-19T04:35:56;99832.53;;;22.01;62.46
72961;BME280;61141;46.204;19.774;2022-08-19T04:39:05;99842.31;;;22.15;62.42
72961;BME280;61141;46.204;19.774;2022-08-19T04:42:08;99829.78;;;22.10;63.05
72961;BME280;61141;46.204;19.774;2022-08-19T04:45:32;99838.03;;;22.23;62.95
72961;BME280;61141;46.204;19.774;2022-08-19T04:48:45;99858.84;;;22.40;61.65
72961;BME280;61141;46.204;19.774;2022-08-19T04:51:52;99855.00;;;22.56;61.93
72961;BME280;61141;46.204;19.774;2022-08-19T04:54:57;99862.03;;;22.69;61.03
72961;BME280;61141;46.204;19.774;2022-08-19T04:58:00;99845.59;;;22.71;60.97
72961;BME280;61141;46.204;19.774;2022-08-19T05:01:05;99865.16;;;22.90;61.77
72961;BME280;61141;46.204;19.774;2022-08-19T05:04:07;99866.69;;;22.81;61.92
72961;BME280;61141;46.204;19.774;2022-08-19T05:07:11;99858.03;;;22.89;62.15
72961;BME280;61141;46.204;19.774;2022-08-19T05:10:13;99847.94;;;22.91;61.56
72961;BME280;61141;46.204;19.774;2022-08-19T05:13:18;99878.66;;;23.18;61.40
72961;BME280;61141;46.204;19.774;2022-08-19T05:16:23;99865.63;;;23.24;60.73
72961;BME280;61141;46.204;19.774;2022-08-19T05:19:26;99873.84;;;23.46;59.72
72961;BME280;61141;46.204;19.774;2022-08-19T05:22:47;99872.72;;;23.62;58.14
72961;BME280;61141;46.204;19.774;2022-08-19T05:25:51;99882.03;;;23.68;58.03
72961;BME280;61141;46.204;19.774;2022-08-19T05:28:55;99859.03;;;23.73;57.52
72961;BME280;61141;46.204;19.774;2022-08-19T05:31:58;99877.13;;;23.95;57.48
72961;BME280;61141;46.204;19.774;2022-08-19T05:35:03;99879.44;;;24.15;56.81
72961;BME280;61141;46.204;19.774;2022-08-19T05:38:07;99865.31;;;24.10;56.59
72961;BME280;61141;46.204;19.774;2022-08-19T05:41:12;99887.16;;;24.29;56.03
72961;BME280;61141;46.204;19.774;2022-08-19T05:44:16;99892.72;;;24.38;55.50
72961;BME280;61141;46.204;19.774;2022-08-19T05:47:19;99896.50;;;24.50;55.52
72961;BME280;61141;46.204;19.774;2022-08-19T05:50:22;99888.44;;;24.52;55.44
72961;BME280;61141;46.204;19.774;2022-08-19T05:53:25;99879.66;;;24.59;55.20
72961;BME280;61141;46.204;19.774;2022-08-19T05:56:28;99883.94;;;24.69;54.97
72961;BME280;61141;46.204;19.774;2022-08-19T05:59:33;99878.84;;;24.91;54.11
72961;BME280;61141;46.204;19.774;2022-08-19T06:02:41;99887.69;;;25.13;53.62
72961;BME280;61141;46.204;19.774;2022-08-19T06:05:44;99888.28;;;25.18;53.71
72961;BME280;61141;46.204;19.774;2022-08-19T06:08:53;99881.72;;;25.35;53.27
72961;BME280;61141;46.204;19.774;2022-08-19T06:11:57;99878.06;;;25.44;52.71
72961;BME280;61141;46.204;19.774;2022-08-19T06:15:06;99890.03;;;25.53;52.41
72961;BME280;61141;46.204;19.774;2022-08-19T06:18:09;99883.25;;;25.75;51.91
72961;BME280;61141;46.204;19.774;2022-08-19T06:21:12;99888.56;;;25.58;51.98
72961;BME280;61141;46.204;19.774;2022-08-19T06:24:18;99888.38;;;25.91;51.53
72961;BME280;61141;46.204;19.774;2022-08-19T06:27:21;99888.38;;;25.76;51.65
72961;BME280;61141;46.204;19.774;2022-08-19T06:30:24;99893.50;;;26.07;51.30
72961;BME280;61141;46.204;19.774;2022-08-19T06:33:28;99884.75;;;26.05;50.90
72961;BME280;61141;46.204;19.774;2022-08-19T06:36:37;99891.09;;;26.14;50.77
72961;BME280;61141;46.204;19.774;2022-08-19T06:39:43;99873.59;;;26.40;49.88
72961;BME280;61141;46.204;19.774;2022-08-19T06:42:46;99871.13;;;26.47;50.08
72961;BME280;61141;46.204;19.774;2022-08-19T06:45:56;99873.31;;;26.58;49.54
72961;BME280;61141;46.204;19.774;2022-08-19T06:49:03;99880.34;;;26.68;49.26
72961;BME280;61141;46.204;19.774;2022-08-19T06:52:07;99884.84;;;26.95;48.65
72961;BME280;61141;46.204;19.774;2022-08-19T06:55:15;99889.38;;;27.12;48.07
72961;BME280;61141;46.204;19.774;2022-08-19T06:58:20;99904.66;;;27.31;47.49
72961;BME280;61141;46.204;19.774;2022-08-19T07:01:23;99893.94;;;27.30;47.71
72961;BME280;61141;46.204;19.774;2022-08-19T07:04:29;99895.28;;;27.60;46.67
72961;BME280;61141;46.204;19.774;2022-08-19T07:07:35;99893.63;;;27.74;46.45
72961;BME280;61141;46.204;19.774;2022-08-19T07:10:42;99889.59;;;27.80;46.19
72961;BME280;61141;46.204;19.774;2022-08-19T07:13:46;99886.22;;;27.76;46.37
72961;BME280;61141;46.204;19.774;2022-08-19T07:16:56;99889.97;;;27.93;45.64
72961;BME280;61141;46.204;19.774;2022-08-19T07:19:59;99892.72;;;28.14;45.47
72961;BME280;61141;46.204;19.774;2022-08-19T07:23:09;99881.13;;;28.06;45.65
72961;BME280;61141;46.204;19.774;2022-08-19T07:26:21;99878.31;;;28.06;45.41
72961;BME280;61141;46.204;19.774;2022-08-19T07:29:31;99881.28;;;28.28;45.29
72961;BME280;61141;46.204;19.774;2022-08-19T07:32:37;99884.22;;;28.45;44.98
72961;BME280;61141;46.204;19.774;2022-08-19T07:35:40;99885.88;;;28.63;44.03
72961;BME280;61141;46.204;19.774;2022-08-19T07:38:45;99879.03;;;28.75;44.23
72961;BME280;61141;46.204;19.774;2022-08-19T07:41:49;99884.94;;;28.77;44.18
72961;BME280;61141;46.204;19.774;2022-08-19T07:44:53;99883.72;;;29.00;43.68
72961;BME280;61141;46.204;19.774;2022-08-19T07:47:56;99878.37;;;29.02;43.17
72961;BME280;61141;46.204;19.774;2022-08-19T07:51:01;99884.03;;;29.02;43.49
72961;BME280;61141;46.204;19.774;2022-08-19T07:54:04;99878.22;;;29.33;43.02
72961;BME280;61141;46.204;19.774;2022-08-19T07:57:07;99871.87;;;29.60;42.36
72961;BME280;61141;46.204;19.774;2022-08-19T08:00:11;99877.22;;;29.47;42.63
72961;BME280;61141;46.204;19.774;2022-08-19T08:03:17;99876.19;;;29.45;42.35
72961;BME280;61141;46.204;19.774;2022-08-19T08:06:21;99883.94;;;29.66;41.94
72961;BME280;61141;46.204;19.774;2022-08-19T08:09:45;99882.16;;;29.91;41.65
72961;BME280;61141;46.204;19.774;2022-08-19T08:12:53;99871.13;;;30.10;41.19
72961;BME280;61141;46.204;19.774;2022-08-19T08:16:12;99846.97;;;30.14;40.85
72961;BME280;61141;46.204;19.774;2022-08-19T08:19:17;99853.63;;;30.39;40.33
72961;BME280;61141;46.204;19.774;2022-08-19T08:22:27;99868.50;;;30.56;40.10
72961;BME280;61141;46.204;19.774;2022-08-19T08:25:49;99867.44;;;30.70;39.78
72961;BME280;61141;46.204;19.774;2022-08-19T08:28:53;99882.78;;;30.86;39.66
72961;BME280;61141;46.204;19.774;2022-08-19T08:31:56;99855.28;;;30.92;39.32
72961;BME280;61141;46.204;19.774;2022-08-19T08:35:03;99878.00;;;31.22;38.65
72961;BME280;61141;46.204;19.774;2022-08-19T08:38:06;99870.19;;;31.39;37.89
72961;BME280;61141;46.204;19.774;2022-08-19T08:41:19;99866.75;;;31.57;38.04
72961;BME280;61141;46.204;19.774;2022-08-19T08:45:27;99872.28;;;31.74;37.32
72961;BME280;61141;46.204;19.774;2022-08-19T08:48:19;99863.09;;;31.97;36.81
72961;BME280;61141;46.204;19.774;2022-08-19T08:51:33;99863.47;;;32.13;35.75
72961;BME280;61141;46.204;19.774;2022-08-19T08:54:43;99861.47;;;32.32;35.89
72961;BME280;61141;46.204;19.774;2022-08-19T08:58:10;99867.59;;;32.41;34.85
72961;BME280;61141;46.204;19.774;2022-08-19T09:01:16;99862.69;;;32.66;34.99
72961;BME280;61141;46.204;19.774;2022-08-19T09:04:19;99867.69;;;32.79;34.85
72961;BME280;61141;46.204;19.774;2022-08-19T09:07:58;99860.81;;;32.93;33.41
72961;BME280;61141;46.204;19.774;2022-08-19T09:11:08;99853.16;;;33.06;33.88
72961;BME280;61141;46.204;19.774;2022-08-19T09:17:52;99849.31;;;33.41;33.21
72961;BME280;61141;46.204;19.774;2022-08-19T09:20:55;99851.16;;;33.57;31.87
72961;BME280;61141;46.204;19.774;2022-08-19T09:23:59;99854.91;;;33.47;31.52
72961;BME280;61141;46.204;19.774;2022-08-19T09:27:05;99841.87;;;33.57;31.89
72961;BME280;61141;46.204;19.774;2022-08-19T09:30:23;99843.84;;;33.94;31.01
72961;BME280;61141;46.204;19.774;2022-08-19T09:33:26;99850.25;;;34.13;31.64
72961;BME280;61141;46.204;19.774;2022-08-19T09:36:31;99841.34;;;34.03;30.28
72961;BME280;61141;46.204;19.774;2022-08-19T09:39:37;99836.34;;;34.22;30.43
72961;BME280;61141;46.204;19.774;2022-08-19T09:42:42;99833.28;;;34.47;29.81
72961;BME280;61141;46.204;19.774;2022-08-19T09:45:52;99828.06;;;34.51;29.86
72961;BME280;61141;46.204;19.774;2022-08-19T09:48:58;99838.25;;;34.46;29.87
72961;BME280;61141;46.204;19.774;2022-08-19T09:52:09;99840.94;;;34.39;29.64
72961;BME280;61141;46.204;19.774;2022-08-19T09:55:14;99833.53;;;34.36;29.32
72961;BME280;61141;46.204;19.774;2022-08-19T09:58:19;99817.13;;;34.55;29.27
72961;BME280;61141;46.204;19.774;2022-08-19T10:01:29;99823.97;;;34.86;28.24
72961;BME280;61141;46.204;19.774;2022-08-19T10:04:32;99831.41;;;35.02;28.26
72961;BME280;61141;46.204;19.774;2022-08-19T10:07:54;99824.47;;;35.23;27.24
72961;BME280;61141;46.204;19.774;2022-08-19T10:10:59;99816.38;;;35.14;27.69
72961;BME280;61141;46.204;19.774;2022-08-19T10:14:22;99806.03;;;35.24;27.22
72961;BME280;61141;46.204;19.774;2022-08-19T10:17:26;99805.16;;;35.29;27.59
72961;BME280;61141;46.204;19.774;2022-08-19T10:20:35;99790.84;;;35.43;26.90
72961;BME280;61141;46.204;19.774;2022-08-19T10:23:43;99775.81;;;35.21;26.60
72961;BME280;61141;46.204;19.774;2022-08-19T10:26:47;99766.25;;;35.53;26.85
72961;BME280;61141;46.204;19.774;2022-08-19T10:30:01;99775.56;;;35.74;25.93
72961;BME280;61141;46.204;19.774;2022-08-19T10:33:05;99782.66;;;35.80;26.17
72961;BME280;61141;46.204;19.774;2022-08-19T10:36:17;99788.41;;;35.88;25.76
72961;BME280;61141;46.204;19.774;2022-08-19T10:39:20;99791.34;;;35.95;25.59
72961;BME280;61141;46.204;19.774;2022-08-19T10:42:25;99786.34;;;36.09;25.14
72961;BME280;61141;46.204;19.774;2022-08-19T10:45:27;99783.12;;;35.92;25.94
72961;BME280;61141;46.204;19.774;2022-08-19T10:48:36;99792.69;;;36.23;25.23
72961;BME280;61141;46.204;19.774;2022-08-19T10:51:40;99795.47;;;35.87;25.42
72961;BME280;61141;46.204;19.774;2022-08-19T10:55:05;99794.50;;;36.13;25.26
72961;BME280;61141;46.204;19.774;2022-08-19T10:58:30;99791.66;;;36.13;24.83
72961;BME280;61141;46.204;19.774;2022-08-19T11:01:34;99785.59;;;36.16;25.09
72961;BME280;61141;46.204;19.774;2022-08-19T11:04:38;99791.69;;;36.48;24.72
72961;BME280;61141;46.204;19.774;2022-08-19T11:07:44;99785.09;;;36.25;24.82
72961;BME280;61141;46.204;19.774;2022-08-19T11:10:46;99798.44;;;36.59;24.55
72961;BME280;61141;46.204;19.774;2022-08-19T11:13:52;99793.56;;;36.46;24.32
72961;BME280;61141;46.204;19.774;2022-08-19T11:16:56;99796.31;;;36.51;24.62
72961;BME280;61141;46.204;19.774;2022-08-19T11:20:00;99769.12;;;36.58;24.16
72961;BME280;61141;46.204;19.774;2022-08-19T11:23:06;99782.03;;;36.95;23.96
72961;BME280;61141;46.204;19.774;2022-08-19T11:26:09;99775.13;;;36.83;23.75
72961;BME280;61141;46.204;19.774;2022-08-19T11:29:13;99772.50;;;36.92;24.29
72961;BME280;61141;46.204;19.774;2022-08-19T11:32:16;99773.53;;;37.18;24.00
72961;BME280;61141;46.204;19.774;2022-08-19T11:35:19;99770.13;;;37.19;23.72
72961;BME280;61141;46.204;19.774;2022-08-19T11:38:22;99756.56;;;37.12;23.25
72961;BME280;61141;46.204;19.774;2022-08-19T11:41:26;99760.41;;;37.15;23.26
72961;BME280;61141;46.204;19.774;2022-08-19T11:44:29;99764.47;;;37.42;23.21
72961;BME280;61141;46.204;19.774;2022-08-19T11:47:32;99775.34;;;37.58;22.95
72961;BME280;61141;46.204;19.774;2022-08-19T11:50:35;99761.59;;;37.57;22.96
72961;BME280;61141;46.204;19.774;2022-08-19T11:53:38;99758.53;;;37.70;22.66
72961;BME280;61141;46.204;19.774;2022-08-19T11:56:42;99764.84;;;37.53;22.86
72961;BME280;61141;46.204;19.774;2022-08-19T11:59:50;99775.13;;;37.56;22.64
72961;BME280;61141;46.204;19.774;2022-08-19T12:02:53;99763.88;;;37.43;23.00
72961;BME280;61141;46.204;19.774;2022-08-19T12:05:57;99761.00;;;37.36;22.92
72961;BME280;61141;46.204;19.774;2022-08-19T12:09:04;99766.13;;;37.37;22.95
72961;BME280;61141;46.204;19.774;2022-08-19T12:12:08;99765.03;;;37.71;22.91
72961;BME280;61141;46.204;19.774;2022-08-19T12:15:12;99758.94;;;37.74;22.49
72961;BME280;61141;46.204;19.774;2022-08-19T12:18:16;99751.34;;;37.92;22.46
72961;BME280;61141;46.204;19.774;2022-08-19T12:21:23;99754.19;;;37.92;22.47
72961;BME280;61141;46.204;19.774;2022-08-19T12:24:30;99741.59;;;37.80;22.67
72961;BME280;61141;46.204;19.774;2022-08-19T12:27:34;99730.72;;;37.86;22.55
72961;BME280;61141;46.204;19.774;2022-08-19T12:30:43;99729.94;;;38.00;22.58
72961;BME280;61141;46.204;19.774;2022-08-19T12:33:47;99733.97;;;37.97;22.73
72961;BME280;61141;46.204;19.774;2022-08-19T12:36:50;99731.03;;;38.20;22.46
72961;BME280;61141;46.204;19.774;2022-08-19T12:39:52;99726.31;;;38.00;22.73
72961;BME280;61141;46.204;19.774;2022-08-19T12:42:55;99730.69;;;38.01;22.41
72961;BME280;61141;46.204;19.774;2022-08-19T12:45:58;99729.53;;;38.19;21.60
72961;BME280;61141;46.204;19.774;2022-08-19T12:49:02;99716.97;;;37.99;21.92
72961;BME280;61141;46.204;19.774;2022-08-19T12:52:18;99722.06;;;38.23;21.58
72961;BME280;61141;46.204;19.774;2022-08-19T12:55:25;99717.66;;;38.22;21.60
72961;BME280;61141;46.204;19.774;2022-08-19T12:58:30;99724.38;;;38.17;21.75
72961;BME280;61141;46.204;19.774;2022-08-19T13:01:34;99721.19;;;37.83;21.79
72961;BME280;61141;46.204;19.774;2022-08-19T13:04:36;99713.38;;;37.53;21.88
72961;BME280;61141;46.204;19.774;2022-08-19T13:07:43;99705.94;;;37.81;21.99
72961;BME280;61141;46.204;19.774;2022-08-19T13:10:46;99697.50;;;37.98;21.90
72961;BME280;61141;46.204;19.774;2022-08-19T13:13:50;99708.47;;;38.32;21.67
72961;BME280;61141;46.204;19.774;2022-08-19T13:16:53;99703.56;;;38.32;21.51
72961;BME280;61141;46.204;19.774;2022-08-19T13:19:56;99700.69;;;38.32;21.27
72961;BME280;61141;46.204;19.774;2022-08-19T13:22:59;99690.06;;;38.57;21.38
72961;BME280;61141;46.204;19.774;2022-08-19T13:26:05;99697.13;;;38.56;21.00
72961;BME280;61141;46.204;19.774;2022-08-19T13:29:08;99693.25;;;38.69;20.78
72961;BME280;61141;46.204;19.774;2022-08-19T13:32:30;99706.44;;;38.72;21.05
72961;BME280;61141;46.204;19.774;2022-08-19T13:35:58;99701.66;;;38.67;20.94
72961;BME280;61141;46.204;19.774;2022-08-19T13:39:04;99710.06;;;38.65;21.21
72961;BME280;61141;46.204;19.774;2022-08-19T13:42:07;99692.22;;;38.49;21.14
72961;BME280;61141;46.204;19.774;2022-08-19T13:45:11;99701.25;;;38.38;20.95
72961;BME280;61141;46.204;19.774;2022-08-19T13:48:14;99689.47;;;38.11;21.19
72961;BME280;61141;46.204;19.774;2022-08-19T13:51:18;99687.66;;;37.61;21.69
72961;BME280;61141;46.204;19.774;2022-08-19T13:54:21;99688.00;;;37.65;21.53
72961;BME280;61141;46.204;19.774;2022-08-19T13:57:24;99679.06;;;37.61;21.87
72961;BME280;61141;46.204;19.774;2022-08-19T14:00:32;99669.34;;;37.41;22.02
72961;BME280;61141;46.204;19.774;2022-08-19T14:03:36;99669.31;;;37.79;21.51
72961;BME280;61141;46.204;19.774;2022-08-19T14:06:39;99671.19;;;37.99;21.54
72961;BME280;61141;46.204;19.774;2022-08-19T14:09:42;99663.72;;;38.04;21.29
72961;BME280;61141;46.204;19.774;2022-08-19T14:12:47;99662.97;;;38.11;21.45
72961;BME280;61141;46.204;19.774;2022-08-19T14:15:51;99660.97;;;38.29;21.39
72961;BME280;61141;46.204;19.774;2022-08-19T14:18:54;99656.16;;;38.46;21.39
72961;BME280;61141;46.204;19.774;2022-08-19T14:21:57;99651.22;;;38.39;21.33
72961;BME280;61141;46.204;19.774;2022-08-19T14:25:00;99652.97;;;38.27;21.30
72961;BME280;61141;46.204;19.774;2022-08-19T14:28:04;99635.78;;;38.27;21.57
72961;BME280;61141;46.204;19.774;2022-08-19T14:31:07;99649.50;;;37.89;21.90
72961;BME280;61141;46.204;19.774;2022-08-19T14:34:10;99639.81;;;37.46;22.59
72961;BME280;61141;46.204;19.774;2022-08-19T14:37:14;99647.59;;;37.38;22.45
72961;BME280;61141;46.204;19.774;2022-08-19T14:40:19;99651.22;;;37.24;22.92
72961;BME280;61141;46.204;19.774;2022-08-19T14:43:23;99667.03;;;37.02;23.92
72961;BME280;61141;46.204;19.774;2022-08-19T14:46:28;99660.16;;;36.31;25.83
72961;BME280;61141;46.204;19.774;2022-08-19T14:49:31;99659.22;;;36.36;26.45
72961;BME280;61141;46.204;19.774;2022-08-19T14:52:45;99646.56;;;35.81;26.97
72961;BME280;61141;46.204;19.774;2022-08-19T14:55:50;99639.41;;;35.95;27.12
72961;BME280;61141;46.204;19.774;2022-08-19T14:58:56;99667.13;;;35.59;27.03
72961;BME280;61141;46.204;19.774;2022-08-19T15:02:01;99678.38;;;35.44;26.66
72961;BME280;61141;46.204;19.774;2022-08-19T15:05:24;99694.53;;;35.20;26.29
72961;BME280;61141;46.204;19.774;2022-08-19T15:08:30;99694.53;;;34.66;26.70
72961;BME280;61141;46.204;19.774;2022-08-19T15:11:34;99696.78;;;34.20;27.31
72961;BME280;61141;46.204;19.774;2022-08-19T15:14:36;99719.28;;;34.05;27.46
72961;BME280;61141;46.204;19.774;2022-08-19T15:17:44;99720.38;;;34.29;27.26
72961;BME280;61141;46.204;19.774;2022-08-19T15:20:49;99708.78;;;33.87;27.34
72961;BME280;61141;46.204;19.774;2022-08-19T15:23:55;99717.56;;;33.44;27.91
72961;BME280;61141;46.204;19.774;2022-08-19T15:26:58;99716.00;;;33.30;27.94
72961;BME280;61141;46.204;19.774;2022-08-19T15:30:02;99726.03;;;33.31;27.89
72961;BME280;61141;46.204;19.774;2022-08-19T15:33:06;99702.75;;;33.01;28.00
72961;BME280;61141;46.204;19.774;2022-08-19T15:36:09;99725.41;;;33.06;28.10
72961;BME280;61141;46.204;19.774;2022-08-19T15:39:18;99728.69;;;33.10;28.01
72961;BME280;61141;46.204;19.774;2022-08-19T15:42:21;99717.03;;;32.95;28.28
72961;BME280;61141;46.204;19.774;2022-08-19T15:45:31;99699.00;;;32.93;28.14
72961;BME280;61141;46.204;19.774;2022-08-19T15:48:36;99731.00;;;32.93;28.23
72961;BME280;61141;46.204;19.774;2022-08-19T15:51:40;99725.38;;;33.25;27.94
72961;BME280;61141;46.204;19.774;2022-08-19T15:54:44;99720.69;;;33.28;27.99
72961;BME280;61141;46.204;19.774;2022-08-19T15:57:47;99719.06;;;33.32;28.14
72961;BME280;61141;46.204;19.774;2022-08-19T16:01:22;99707.50;;;33.11;28.21
72961;BME280;61141;46.204;19.774;2022-08-19T16:04:42;99691.84;;;33.05;28.30
72961;BME280;61141;46.204;19.774;2022-08-19T16:08:03;99687.72;;;32.87;28.74
72961;BME280;61141;46.204;19.774;2022-08-19T16:11:06;99671.44;;;33.06;28.50
72961;BME280;61141;46.204;19.774;2022-08-19T16:14:09;99661.44;;;32.68;29.20
72961;BME280;61141;46.204;19.774;2022-08-19T16:17:12;99656.94;;;32.60;29.38